sensor_id;sensor_type;location;lat;lon;timestamp;P1;durP1;ratioP1;P2;durP2;ratioP2
40588;SDS011;26297;49.450;6.640;2023-08-01T00:02:10;2.73;;;2.23;;
40588;SDS011;26297;49.450;6.640;2023-08-01T00:06:02;4.35;;;2.00;;
40588;SDS011;26297;49.450;6.640;2023-08-01T00:09:36;5.75;;;2.95;;
40588;SDS011;26297;49.450;6.640;2023-08-01T00:13:18;3.58;;;2.05;;
40588;SDS011;26297;49.450;6.640;2023-08-01T00:16:24;6.40;;;2.40;;
40588;SDS011;26297;49.450;6.640;2023-08-01T00:19:48;6.43;;;2.40;;
40588;SDS011;26297;49.450;6.640;2023-08-01T00:23:19;3.70;;;2.38;;
40588;SDS011;26297;49.450;6.640;2023-08-01T01:50:32;2.47;;;1.75;;
40588;SDS011;26297;49.450;6.640;2023-08-01T03:27:07;2.08;;;1.30;;
40588;SDS011;26297;49.450;6.640;2023-08-01T03:30:23;2.47;;;1.25;;
40588;SDS011;26297;49.450;6.640;2023-08-01T03:33:39;3.05;;;1.33;;
40588;SDS011;26297;49.450;6.640;2023-08-01T03:36:58;1.33;;;1.20;;
40588;SDS011;26297;49.450;6.640;2023-08-01T03:44:46;1.73;;;1.40;;
40588;SDS011;26297;49.450;6.640;2023-08-01T03:52:35;2.42;;;1.25;;
40588;SDS011;26297;49.450;6.640;2023-08-01T03:55:46;1.35;;;1.23;;
40588;SDS011;26297;49.450;6.640;2023-08-01T03:59:06;1.58;;;1.05;;
40588;SDS011;26297;49.450;6.640;2023-08-01T04:02:46;1.75;;;1.20;;
40588;SDS011;26297;49.450;6.640;2023-08-01T04:09:32;2.33;;;0.88;;
40588;SDS011;26297;49.450;6.640;2023-08-01T04:13:09;2.90;;;0.80;;
40588;SDS011;26297;49.450;6.640;2023-08-01T04:20:07;0.98;;;0.60;;
40588;SDS011;26297;49.450;6.640;2023-08-01T04:28:18;0.90;;;0.80;;
40588;SDS011;26297;49.450;6.640;2023-08-01T04:31:32;1.38;;;0.73;;
40588;SDS011;26297;49.450;6.640;2023-08-01T04:34:46;0.88;;;0.45;;
40588;SDS011;26297;49.450;6.640;2023-08-01T04:37:58;0.85;;;0.52;;
40588;SDS011;26297;49.450;6.640;2023-08-01T04:41:17;0.60;;;0.60;;
40588;SDS011;26297;49.450;6.640;2023-08-01T04:55:50;0.40;;;0.40;;
40588;SDS011;26297;49.450;6.640;2023-08-01T04:58:59;0.65;;;0.30;;
40588;SDS011;26297;49.450;6.640;2023-08-01T05:02:34;0.50;;;0.40;;
40588;SDS011;26297;49.450;6.640;2023-08-01T05:06:05;0.47;;;0.38;;
40588;SDS011;26297;49.450;6.640;2023-08-01T05:13:16;1.02;;;0.10;;
40588;SDS011;26297;49.450;6.640;2023-08-01T05:17:03;0.47;;;0.17;;
40588;SDS011;26297;49.450;6.640;2023-08-01T05:20:34;0.10;;;0.10;;
40588;SDS011;26297;49.450;6.640;2023-08-01T05:24:19;0.10;;;0.10;;
40588;SDS011;26297;49.450;6.640;2023-08-01T05:31:41;0.30;;;0.30;;
40588;SDS011;26297;49.450;6.640;2023-08-01T05:35:01;0.52;;;0.20;;
40588;SDS011;26297;49.450;6.640;2023-08-01T05:38:45;0.57;;;0.40;;
40588;SDS011;26297;49.450;6.640;2023-08-01T05:46:06;1.50;;;0.40;;
40588;SDS011;26297;49.450;6.640;2023-08-01T05:49:59;0.40;;;0.30;;
40588;SDS011;26297;49.450;6.640;2023-08-01T05:57:23;0.10;;;0.10;;
40588;SDS011;26297;49.450;6.640;2023-08-01T06:01:03;0.10;;;0.10;;
40588;SDS011;26297;49.450;6.640;2023-08-01T06:04:44;0.10;;;0.10;;
40588;SDS011;26297;49.450;6.640;2023-08-01T06:16:14;0.10;;;0.10;;
40588;SDS011;26297;49.450;6.640;2023-08-01T06:20:01;0.10;;;0.10;;
40588;SDS011;26297;49.450;6.640;2023-08-01T06:30:23;1.15;;;0.30;;
40588;SDS011;26297;49.450;6.640;2023-08-01T06:38:25;0.70;;;0.47;;
40588;SDS011;26297;49.450;6.640;2023-08-01T06:41:32;0.32;;;0.32;;
40588;SDS011;26297;49.450;6.640;2023-08-01T06:45:05;0.45;;;0.30;;
40588;SDS011;26297;49.450;6.640;2023-08-01T06:48:35;0.45;;;0.32;;
40588;SDS011;26297;49.450;6.640;2023-08-01T06:51:38;1.08;;;0.20;;
40588;SDS011;26297;49.450;6.640;2023-08-01T06:54:55;0.35;;;0.17;;
40588;SDS011;26297;49.450;6.640;2023-08-01T06:58:29;1.17;;;0.30;;
40588;SDS011;26297;49.450;6.640;2023-08-01T07:01:53;0.30;;;0.30;;
40588;SDS011;26297;49.450;6.640;2023-08-01T07:04:56;0.43;;;0.20;;
40588;SDS011;26297;49.450;6.640;2023-08-01T07:08:01;1.20;;;0.40;;
40588;SDS011;26297;49.450;6.640;2023-08-01T07:11:11;0.32;;;0.20;;
40588;SDS011;26297;49.450;6.640;2023-08-01T07:14:23;0.80;;;0.60;;
40588;SDS011;26297;49.450;6.640;2023-08-01T07:17:43;0.75;;;0.60;;
40588;SDS011;26297;49.450;6.640;2023-08-01T07:24:31;1.52;;;0.70;;
40588;SDS011;26297;49.450;6.640;2023-08-01T07:27:40;1.50;;;0.60;;
40588;SDS011;26297;49.450;6.640;2023-08-01T07:49:10;1.63;;;0.93;;
40588;SDS011;26297;49.450;6.640;2023-08-01T07:52:39;1.20;;;0.75;;
40588;SDS011;26297;49.450;6.640;2023-08-01T07:55:56;1.65;;;0.90;;
40588;SDS011;26297;49.450;6.640;2023-08-01T07:59:04;0.55;;;0.50;;
40588;SDS011;26297;49.450;6.640;2023-08-01T08:02:08;1.30;;;0.88;;
40588;SDS011;26297;49.450;6.640;2023-08-01T08:05:22;1.70;;;1.10;;
40588;SDS011;26297;49.450;6.640;2023-08-01T08:08:30;1.77;;;0.80;;
40588;SDS011;26297;49.450;6.640;2023-08-01T08:11:39;2.88;;;0.85;;
40588;SDS011;26297;49.450;6.640;2023-08-01T08:14:43;0.98;;;0.80;;
40588;SDS011;26297;49.450;6.640;2023-08-01T08:17:55;2.28;;;0.80;;
40588;SDS011;26297;49.450;6.640;2023-08-01T08:21:11;2.83;;;0.90;;
40588;SDS011;26297;49.450;6.640;2023-08-01T08:24:26;2.58;;;1.05;;
40588;SDS011;26297;49.450;6.640;2023-08-01T08:27:29;1.48;;;1.13;;
40588;SDS011;26297;49.450;6.640;2023-08-01T08:30:48;1.20;;;0.93;;
40588;SDS011;26297;49.450;6.640;2023-08-01T08:33:52;2.40;;;1.75;;
40588;SDS011;26297;49.450;6.640;2023-08-01T08:36:55;2.15;;;1.17;;
40588;SDS011;26297;49.450;6.640;2023-08-01T08:40:04;2.35;;;0.80;;
40588;SDS011;26297;49.450;6.640;2023-08-01T08:43:24;2.95;;;1.38;;
40588;SDS011;26297;49.450;6.640;2023-08-01T08:54:02;2.70;;;0.90;;
40588;SDS011;26297;49.450;6.640;2023-08-01T08:57:24;1.77;;;1.10;;
40588;SDS011;26297;49.450;6.640;2023-08-01T09:24:08;1.60;;;1.00;;
40588;SDS011;26297;49.450;6.640;2023-08-01T09:27:13;1.58;;;1.15;;
40588;SDS011;26297;49.450;6.640;2023-08-01T09:30:24;1.50;;;1.20;;
40588;SDS011;26297;49.450;6.640;2023-08-01T09:38:00;4.68;;;1.30;;
40588;SDS011;26297;49.450;6.640;2023-08-01T09:41:04;2.50;;;1.48;;
40588;SDS011;26297;49.450;6.640;2023-08-01T09:44:16;1.85;;;0.85;;
40588;SDS011;26297;49.450;6.640;2023-08-01T09:47:58;3.30;;;1.23;;
40588;SDS011;26297;49.450;6.640;2023-08-01T09:51:10;1.50;;;1.17;;
40588;SDS011;26297;49.450;6.640;2023-08-01T09:54:40;2.70;;;1.60;;
40588;SDS011;26297;49.450;6.640;2023-08-01T09:57:46;3.00;;;1.50;;
40588;SDS011;26297;49.450;6.640;2023-08-01T10:01:07;3.20;;;1.30;;
40588;SDS011;26297;49.450;6.640;2023-08-01T10:04:11;3.33;;;1.15;;
40588;SDS011;26297;49.450;6.640;2023-08-01T10:07:25;3.05;;;1.63;;
40588;SDS011;26297;49.450;6.640;2023-08-01T10:10:42;1.38;;;1.15;;
40588;SDS011;26297;49.450;6.640;2023-08-01T10:14:11;6.35;;;1.45;;
40588;SDS011;26297;49.450;6.640;2023-08-01T10:25:19;2.38;;;1.33;;
40588;SDS011;26297;49.450;6.640;2023-08-01T10:28:33;2.38;;;1.27;;
40588;SDS011;26297;49.450;6.640;2023-08-01T10:31:37;2.30;;;1.63;;
40588;SDS011;26297;49.450;6.640;2023-08-01T10:37:45;1.67;;;1.00;;
40588;SDS011;26297;49.450;6.640;2023-08-01T10:45:06;4.88;;;1.10;;
40588;SDS011;26297;49.450;6.640;2023-08-01T10:48:27;1.25;;;1.02;;
40588;SDS011;26297;49.450;6.640;2023-08-01T10:51:39;2.47;;;1.25;;
40588;SDS011;26297;49.450;6.640;2023-08-01T10:54:46;2.45;;;1.17;;
40588;SDS011;26297;49.450;6.640;2023-08-01T10:58:04;2.85;;;1.52;;
40588;SDS011;26297;49.450;6.640;2023-08-01T11:10:57;3.97;;;1.20;;
40588;SDS011;26297;49.450;6.640;2023-08-01T11:14:05;1.95;;;1.13;;
40588;SDS011;26297;49.450;6.640;2023-08-01T11:17:08;1.20;;;0.98;;
40588;SDS011;26297;49.450;6.640;2023-08-01T11:20:18;2.47;;;1.10;;
40588;SDS011;26297;49.450;6.640;2023-08-01T11:23:32;1.77;;;1.25;;
40588;SDS011;26297;49.450;6.640;2023-08-01T11:26:46;1.67;;;1.08;;
40588;SDS011;26297;49.450;6.640;2023-08-01T11:29:54;4.00;;;1.58;;
40588;SDS011;26297;49.450;6.640;2023-08-01T11:32:58;3.10;;;1.00;;
40588;SDS011;26297;49.450;6.640;2023-08-01T11:36:15;2.50;;;1.00;;
40588;SDS011;26297;49.450;6.640;2023-08-01T11:39:19;1.20;;;1.10;;
40588;SDS011;26297;49.450;6.640;2023-08-01T11:42:25;2.42;;;1.38;;
40588;SDS011;26297;49.450;6.640;2023-08-01T11:45:33;1.83;;;1.38;;
40588;SDS011;26297;49.450;6.640;2023-08-01T11:48:36;3.05;;;1.80;;
40588;SDS011;26297;49.450;6.640;2023-08-01T11:51:40;1.90;;;1.02;;
40588;SDS011;26297;49.450;6.640;2023-08-01T11:54:45;3.08;;;1.30;;
40588;SDS011;26297;49.450;6.640;2023-08-01T11:57:57;3.80;;;1.48;;
40588;SDS011;26297;49.450;6.640;2023-08-01T12:01:07;1.30;;;0.90;;
40588;SDS011;26297;49.450;6.640;2023-08-01T12:07:53;1.10;;;0.77;;
40588;SDS011;26297;49.450;6.640;2023-08-01T12:10:57;1.85;;;0.75;;
40588;SDS011;26297;49.450;6.640;2023-08-01T12:17:16;2.70;;;1.70;;
40588;SDS011;26297;49.450;6.640;2023-08-01T12:20:19;2.20;;;1.10;;
40588;SDS011;26297;49.450;6.640;2023-08-01T12:23:23;3.33;;;0.80;;
40588;SDS011;26297;49.450;6.640;2023-08-01T12:26:27;1.80;;;0.98;;
40588;SDS011;26297;49.450;6.640;2023-08-01T12:29:31;2.78;;;0.88;;
40588;SDS011;26297;49.450;6.640;2023-08-01T12:32:36;2.92;;;1.20;;
40588;SDS011;26297;49.450;6.640;2023-08-01T12:35:40;1.83;;;0.85;;
40588;SDS011;26297;49.450;6.640;2023-08-01T12:38:46;2.75;;;0.82;;
40588;SDS011;26297;49.450;6.640;2023-08-01T12:41:50;2.13;;;1.17;;
40588;SDS011;26297;49.450;6.640;2023-08-01T12:44:56;2.30;;;0.88;;
40588;SDS011;26297;49.450;6.640;2023-08-01T12:56:55;2.47;;;0.82;;
40588;SDS011;26297;49.450;6.640;2023-08-01T13:00:09;1.27;;;0.82;;
40588;SDS011;26297;49.450;6.640;2023-08-01T13:03:26;2.53;;;0.88;;
40588;SDS011;26297;49.450;6.640;2023-08-01T13:07:08;2.38;;;0.95;;
40588;SDS011;26297;49.450;6.640;2023-08-01T13:10:37;0.98;;;0.60;;
40588;SDS011;26297;49.450;6.640;2023-08-01T13:18:20;2.60;;;0.68;;
40588;SDS011;26297;49.450;6.640;2023-08-01T13:21:44;2.78;;;1.10;;
40588;SDS011;26297;49.450;6.640;2023-08-01T13:25:21;1.90;;;0.88;;
40588;SDS011;26297;49.450;6.640;2023-08-01T13:29:12;4.10;;;0.85;;
40588;SDS011;26297;49.450;6.640;2023-08-01T13:32:36;1.83;;;0.85;;
40588;SDS011;26297;49.450;6.640;2023-08-01T13:35:50;2.13;;;0.88;;
40588;SDS011;26297;49.450;6.640;2023-08-01T13:43:36;4.63;;;1.00;;
40588;SDS011;26297;49.450;6.640;2023-08-01T15:20:09;2.55;;;1.58;;
40588;SDS011;26297;49.450;6.640;2023-08-01T15:23:16;3.13;;;1.58;;
40588;SDS011;26297;49.450;6.640;2023-08-01T15:26:25;2.80;;;1.20;;
40588;SDS011;26297;49.450;6.640;2023-08-01T15:29:41;1.80;;;1.30;;
40588;SDS011;26297;49.450;6.640;2023-08-01T15:33:00;1.45;;;1.15;;
40588;SDS011;26297;49.450;6.640;2023-08-01T15:36:11;4.05;;;1.25;;
40588;SDS011;26297;49.450;6.640;2023-08-01T15:39:27;3.30;;;1.25;;
40588;SDS011;26297;49.450;6.640;2023-08-01T15:42:49;2.90;;;1.33;;
40588;SDS011;26297;49.450;6.640;2023-08-01T15:46:48;3.45;;;1.52;;
40588;SDS011;26297;49.450;6.640;2023-08-01T15:49:54;4.22;;;2.58;;
40588;SDS011;26297;49.450;6.640;2023-08-01T15:53:17;2.88;;;1.30;;
40588;SDS011;26297;49.450;6.640;2023-08-01T15:56:35;3.15;;;1.67;;
40588;SDS011;26297;49.450;6.640;2023-08-01T16:04:33;2.90;;;1.43;;
40588;SDS011;26297;49.450;6.640;2023-08-01T16:08:02;2.95;;;1.40;;
40588;SDS011;26297;49.450;6.640;2023-08-01T16:15:32;2.25;;;1.10;;
40588;SDS011;26297;49.450;6.640;2023-08-01T16:19:15;1.65;;;0.98;;
40588;SDS011;26297;49.450;6.640;2023-08-01T16:35:26;3.60;;;1.17;;
40588;SDS011;26297;49.450;6.640;2023-08-01T16:38:40;2.35;;;0.90;;
40588;SDS011;26297;49.450;6.640;2023-08-01T16:41:50;1.83;;;0.90;;
40588;SDS011;26297;49.450;6.640;2023-08-01T16:44:53;2.50;;;0.80;;
40588;SDS011;26297;49.450;6.640;2023-08-01T16:48:04;2.70;;;1.65;;
40588;SDS011;26297;49.450;6.640;2023-08-01T16:51:26;1.65;;;0.95;;
40588;SDS011;26297;49.450;6.640;2023-08-01T16:54:29;4.10;;;1.02;;
40588;SDS011;26297;49.450;6.640;2023-08-01T16:57:39;3.33;;;0.98;;
40588;SDS011;26297;49.450;6.640;2023-08-01T17:00:46;7.47;;;1.08;;
40588;SDS011;26297;49.450;6.640;2023-08-01T17:04:27;1.17;;;0.90;;
40588;SDS011;26297;49.450;6.640;2023-08-01T17:07:38;3.00;;;0.82;;
40588;SDS011;26297;49.450;6.640;2023-08-01T17:10:45;4.82;;;1.30;;
40588;SDS011;26297;49.450;6.640;2023-08-01T17:14:05;1.02;;;0.73;;
40588;SDS011;26297;49.450;6.640;2023-08-01T17:36:40;3.88;;;1.30;;
40588;SDS011;26297;49.450;6.640;2023-08-01T17:39:51;2.40;;;1.10;;
40588;SDS011;26297;49.450;6.640;2023-08-01T17:43:06;3.05;;;1.05;;
40588;SDS011;26297;49.450;6.640;2023-08-01T17:46:14;2.72;;;1.83;;
40588;SDS011;26297;49.450;6.640;2023-08-01T17:49:51;3.65;;;1.38;;
40588;SDS011;26297;49.450;6.640;2023-08-01T17:56:18;2.65;;;1.08;;
40588;SDS011;26297;49.450;6.640;2023-08-01T17:59:29;2.85;;;1.52;;
40588;SDS011;26297;49.450;6.640;2023-08-01T18:02:41;4.28;;;1.38;;
40588;SDS011;26297;49.450;6.640;2023-08-01T18:09:53;1.88;;;1.10;;
40588;SDS011;26297;49.450;6.640;2023-08-01T18:13:01;2.75;;;1.23;;
40588;SDS011;26297;49.450;6.640;2023-08-01T18:16:20;4.63;;;1.50;;
40588;SDS011;26297;49.450;6.640;2023-08-01T18:34:44;2.45;;;1.48;;
40588;SDS011;26297;49.450;6.640;2023-08-01T18:38:10;3.47;;;1.30;;
40588;SDS011;26297;49.450;6.640;2023-08-01T18:41:54;1.20;;;0.90;;
40588;SDS011;26297;49.450;6.640;2023-08-01T18:45:33;3.20;;;1.30;;
40588;SDS011;26297;49.450;6.640;2023-08-01T18:49:07;2.85;;;1.13;;
40588;SDS011;26297;49.450;6.640;2023-08-01T18:56:51;3.13;;;1.35;;
40588;SDS011;26297;49.450;6.640;2023-08-01T19:00:18;2.83;;;1.10;;
40588;SDS011;26297;49.450;6.640;2023-08-01T19:03:43;3.50;;;1.10;;
40588;SDS011;26297;49.450;6.640;2023-08-01T19:11:03;3.75;;;1.50;;
40588;SDS011;26297;49.450;6.640;2023-08-01T19:14:27;4.13;;;1.45;;
40588;SDS011;26297;49.450;6.640;2023-08-01T19:17:41;3.75;;;1.70;;
40588;SDS011;26297;49.450;6.640;2023-08-01T19:20:46;4.25;;;1.50;;
40588;SDS011;26297;49.450;6.640;2023-08-01T19:23:50;4.20;;;1.20;;
40588;SDS011;26297;49.450;6.640;2023-08-01T19:26:56;3.38;;;1.50;;
40588;SDS011;26297;49.450;6.640;2023-08-01T19:30:04;4.32;;;1.65;;
40588;SDS011;26297;49.450;6.640;2023-08-01T19:33:11;2.17;;;0.90;;
40588;SDS011;26297;49.450;6.640;2023-08-01T19:36:18;4.20;;;0.95;;
40588;SDS011;26297;49.450;6.640;2023-08-01T19:39:22;10.30;;;1.30;;
40588;SDS011;26297;49.450;6.640;2023-08-01T19:42:38;2.60;;;1.02;;
40588;SDS011;26297;49.450;6.640;2023-08-01T19:45:51;2.17;;;1.10;;
40588;SDS011;26297;49.450;6.640;2023-08-01T19:49:06;2.55;;;1.05;;
40588;SDS011;26297;49.450;6.640;2023-08-01T19:52:48;2.25;;;1.40;;
40588;SDS011;26297;49.450;6.640;2023-08-01T19:55:57;2.78;;;1.63;;
40588;SDS011;26297;49.450;6.640;2023-08-01T19:59:39;3.42;;;1.45;;
40588;SDS011;26297;49.450;6.640;2023-08-01T20:02:47;4.20;;;1.42;;
40588;SDS011;26297;49.450;6.640;2023-08-01T20:06:04;2.30;;;1.25;;
40588;SDS011;26297;49.450;6.640;2023-08-01T20:09:18;1.10;;;1.00;;
40588;SDS011;26297;49.450;6.640;2023-08-01T20:12:28;4.30;;;1.38;;
40588;SDS011;26297;49.450;6.640;2023-08-01T20:15:41;3.35;;;1.58;;
40588;SDS011;26297;49.450;6.640;2023-08-01T20:18:48;3.35;;;1.40;;
40588;SDS011;26297;49.450;6.640;2023-08-01T20:21:51;2.40;;;1.10;;
40588;SDS011;26297;49.450;6.640;2023-08-01T20:25:03;3.78;;;1.50;;
40588;SDS011;26297;49.450;6.640;2023-08-01T20:28:10;3.80;;;1.42;;
40588;SDS011;26297;49.450;6.640;2023-08-01T20:31:16;2.83;;;1.38;;
40588;SDS011;26297;49.450;6.640;2023-08-01T20:34:22;3.17;;;1.30;;
40588;SDS011;26297;49.450;6.640;2023-08-01T20:37:39;2.13;;;1.38;;
40588;SDS011;26297;49.450;6.640;2023-08-01T20:40:45;2.75;;;1.45;;
40588;SDS011;26297;49.450;6.640;2023-08-01T20:43:57;3.60;;;1.30;;
40588;SDS011;26297;49.450;6.640;2023-08-01T20:47:02;3.63;;;1.30;;
40588;SDS011;26297;49.450;6.640;2023-08-01T20:50:06;2.05;;;1.25;;
40588;SDS011;26297;49.450;6.640;2023-08-01T20:53:11;2.75;;;1.42;;
40588;SDS011;26297;49.450;6.640;2023-08-01T20:56:17;1.83;;;1.08;;
40588;SDS011;26297;49.450;6.640;2023-08-01T20:59:20;4.30;;;1.17;;
40588;SDS011;26297;49.450;6.640;2023-08-01T21:02:23;2.38;;;1.27;;
40588;SDS011;26297;49.450;6.640;2023-08-01T21:05:27;3.95;;;1.20;;
40588;SDS011;26297;49.450;6.640;2023-08-01T21:08:33;3.30;;;1.23;;
40588;SDS011;26297;49.450;6.640;2023-08-01T21:11:39;2.08;;;1.05;;
40588;SDS011;26297;49.450;6.640;2023-08-01T21:14:53;2.80;;;1.50;;
40588;SDS011;26297;49.450;6.640;2023-08-01T21:18:03;2.25;;;1.08;;
40588;SDS011;26297;49.450;6.640;2023-08-01T21:21:07;1.95;;;1.05;;
40588;SDS011;26297;49.450;6.640;2023-08-01T21:24:11;1.70;;;1.02;;
40588;SDS011;26297;49.450;6.640;2023-08-01T21:27:14;2.10;;;0.95;;
40588;SDS011;26297;49.450;6.640;2023-08-01T21:30:19;2.65;;;1.33;;
40588;SDS011;26297;49.450;6.640;2023-08-01T21:37:56;2.35;;;1.23;;
40588;SDS011;26297;49.450;6.640;2023-08-01T22:37:21;1.83;;;1.23;;
40588;SDS011;26297;49.450;6.640;2023-08-01T22:44:07;1.73;;;1.10;;
40588;SDS011;26297;49.450;6.640;2023-08-01T22:47:18;2.15;;;1.15;;
40588;SDS011;26297;49.450;6.640;2023-08-01T22:55:08;2.75;;;1.10;;
40588;SDS011;26297;49.450;6.640;2023-08-01T22:58:41;1.20;;;1.08;;
40588;SDS011;26297;49.450;6.640;2023-08-01T23:02:08;2.65;;;1.05;;
40588;SDS011;26297;49.450;6.640;2023-08-01T23:10:11;2.13;;;1.00;;
40588;SDS011;26297;49.450;6.640;2023-08-01T23:13:23;1.17;;;1.05;;
40588;SDS011;26297;49.450;6.640;2023-08-01T23:16:26;1.88;;;1.10;;
40588;SDS011;26297;49.450;6.640;2023-08-01T23:19:29;2.25;;;1.20;;
40588;SDS011;26297;49.450;6.640;2023-08-01T23:22:42;5.05;;;1.23;;
40588;SDS011;26297;49.450;6.640;2023-08-01T23:25:45;2.55;;;1.48;;
40588;SDS011;26297;49.450;6.640;2023-08-01T23:29:02;1.95;;;1.40;;
40588;SDS011;26297;49.450;6.640;2023-08-01T23:32:05;4.45;;;1.30;;
40588;SDS011;26297;49.450;6.640;2023-08-01T23:35:09;1.70;;;1.27;;
40588;SDS011;26297;49.450;6.640;2023-08-01T23:38:12;4.38;;;1.30;;
40588;SDS011;26297;49.450;6.640;2023-08-01T23:41:18;3.20;;;1.33;;
40588;SDS011;26297;49.450;6.640;2023-08-01T23:44:24;2.40;;;1.23;;
40588;SDS011;26297;49.450;6.640;2023-08-01T23:47:39;1.85;;;1.17;;
40588;SDS011;26297;49.450;6.640;2023-08-01T23:50:46;2.83;;;1.20;;
40588;SDS011;26297;49.450;6.640;2023-08-01T23:53:55;2.55;;;1.15;;
40588;SDS011;26297;49.450;6.640;2023-08-01T23:57:07;2.33;;;1.08;;
